Time,TemperatureF,DewpointF,PressureIn,WindDirection,WindDirectionDegrees,WindSpeedMPH,WindSpeedGustMPH,Humidity,HourlyPrecipIn,Conditions,Clouds,dailyrainin,SoftwareType,DateUTC
2013-07-23 00:00:00,70.3,70.3,29.72,WSW,245,0.0,0.0,100,0.00,,---,0.00,VWS V14.01,2013-07-23 04:00:00,
2013-07-23 00:01:00,70.3,70.3,29.72,WSW,245,0.0,0.0,100,0.00,,---,0.00,VWS V14.01,2013-07-23 04:01:00,
2013-07-23 00:05:00,70.3,70.3,29.72,WSW,245,0.0,0.0,100,0.00,,---,0.00,VWS V14.01,2013-07-23 04:05:00,
2013-07-23 00:06:00,70.3,70.3,29.72,WSW,245,0.0,0.0,100,0.00,,---,0.00,VWS V14.01,2013-07-23 04:06:00,
2013-07-23 00:10:00,70.1,70.1,29.72,WSW,245,0.0,0.0,100,0.00,,---,0.00,VWS V14.01,2013-07-23 04:10:00,
2013-07-23 00:11:00,70.1,70.1,29.71,WSW,245,0.0,0.0,100,0.00,,---,0.00,VWS V14.01,2013-07-23 04:11:00,
2013-07-23 00:15:00,70.1,70.1,29.71,WSW,245,0.0,0.0,100,0.00,,---,0.00,VWS V14.01,2013-07-23 04:15:00,
2013-07-23 00:16:00,70.1,70.1,29.71,WSW,245,0.0,0.0,100,0.00,,---,0.00,VWS V14.01,2013-07-23 04:16:00,
2013-07-23 00:20:00,70.1,70.1,29.71,WSW,245,0.0,0.0,100,0.00,,---,0.00,VWS V14.01,2013-07-23 04:20:00,
2013-07-23 00:21:00,70.1,70.1,29.71,WSW,245,0.0,0.0,100,0.00,,---,0.00,VWS V14.01,2013-07-23 04:21:00,
2013-07-23 00:25:00,70.1,70.1,29.71,WSW,245,0.0,0.0,100,0.00,,---,0.00,VWS V14.01,2013-07-23 04:25:00,
2013-07-23 00:26:00,70.1,70.1,29.71,WSW,245,0.0,0.0,100,0.00,,---,0.00,VWS V14.01,2013-07-23 04:26:00,
2013-07-23 00:30:00,70.1,70.1,29.71,WSW,245,0.0,0.0,100,0.00,,---,0.00,VWS V14.01,2013-07-23 04:30:00,
2013-07-23 00:31:00,70.1,70.1,29.70,WSW,245,0.0,0.0,100,0.00,,---,0.00,VWS V14.01,2013-07-23 04:31:00,
2013-07-23 00:35:00,70.1,70.1,29.70,WSW,245,0.0,0.0,100,0.00,,---,0.00,VWS V14.01,2013-07-23 04:35:00,
2013-07-23 00:36:00,70.1,70.1,29.70,WSW,245,0.0,0.0,100,0.00,,---,0.00,VWS V14.01,2013-07-23 04:36:00,
2013-07-23 00:40:00,70.1,70.1,29.70,WSW,245,0.0,0.0,100,0.00,,---,0.00,VWS V14.01,2013-07-23 04:40:00,
2013-07-23 00:41:00,70.3,70.3,29.71,WSW,245,0.0,0.0,100,0.00,,---,0.00,VWS V14.01,2013-07-23 04:41:00,
2013-07-23 00:45:00,70.3,70.3,29.70,WSW,245,0.0,0.0,100,0.00,,---,0.00,VWS V14.01,2013-07-23 04:45:00,
2013-07-23 00:46:00,70.3,70.3,29.70,WSW,245,0.0,0.0,100,0.00,,---,0.00,VWS V14.01,2013-07-23 04:46:00,
2013-07-23 00:50:00,70.3,70.3,29.71,WSW,245,0.0,0.0,100,0.00,,---,0.00,VWS V14.01,2013-07-23 04:50:00,
2013-07-23 00:51:00,70.3,70.3,29.71,WSW,245,0.0,0.0,100,0.00,,---,0.00,VWS V14.01,2013-07-23 04:51:00,
2013-07-23 00:55:00,70.3,70.3,29.71,WSW,245,0.0,0.0,100,0.00,,---,0.00,VWS V14.01,2013-07-23 04:55:00,
2013-07-23 00:56:00,70.3,70.3,29.71,WSW,245,0.0,0.0,100,0.00,,---,0.00,VWS V14.01,2013-07-23 04:56:00,
2013-07-23 01:00:00,70.3,70.3,29.70,WSW,245,0.0,0.0,100,0.00,,---,0.00,VWS V14.01,2013-07-23 05:00:00,
2013-07-23 01:01:00,70.3,70.3,29.70,WSW,245,0.0,0.0,100,0.00,,---,0.00,VWS V14.01,2013-07-23 05:01:00,
2013-07-23 01:05:00,70.3,70.3,29.70,WSW,245,0.0,0.0,100,0.00,,---,0.00,VWS V14.01,2013-07-23 05:05:00,
2013-07-23 01:06:00,70.3,70.3,29.70,WSW,245,0.0,0.0,100,0.00,,---,0.00,VWS V14.01,2013-07-23 05:06:00,
2013-07-23 01:10:00,70.3,70.3,29.70,WSW,245,0.0,1.0,100,0.00,,---,0.00,VWS V14.01,2013-07-23 05:10:00,
2013-07-23 01:11:00,70.3,70.3,29.70,WSW,245,0.0,0.0,100,0.00,,---,0.00,VWS V14.01,2013-07-23 05:11:00,
2013-07-23 01:15:00,70.3,70.3,29.70,WSW,245,0.0,1.0,100,0.00,,---,0.00,VWS V14.01,2013-07-23 05:15:00,
2013-07-23 01:16:00,70.3,70.3,29.70,WSW,245,0.0,0.0,100,0.00,,---,0.00,VWS V14.01,2013-07-23 05:16:00,
2013-07-23 01:20:00,70.3,70.3,29.70,WSW,245,0.0,0.0,100,0.00,,---,0.00,VWS V14.01,2013-07-23 05:20:00,
2013-07-23 01:21:00,70.3,70.3,29.70,WSW,245,0.0,0.0,100,0.00,,---,0.00,VWS V14.01,2013-07-23 05:21:00,
2013-07-23 01:25:00,70.3,70.3,29.70,WSW,245,0.0,0.0,100,0.00,,---,0.00,VWS V14.01,2013-07-23 05:25:00,
2013-07-23 01:26:00,70.3,70.3,29.70,WSW,245,0.0,0.0,100,0.00,,---,0.00,VWS V14.01,2013-07-23 05:26:00,
2013-07-23 01:30:00,70.3,70.3,29.70,WSW,245,0.0,0.0,100,0.00,,---,0.00,VWS V14.01,2013-07-23 05:30:00,
2013-07-23 01:31:00,70.3,70.3,29.70,WSW,245,0.0,0.0,100,0.00,,---,0.00,VWS V14.01,2013-07-23 05:31:00,
2013-07-23 01:35:00,70.3,70.3,29.69,WSW,245,0.0,0.0,100,0.00,,---,0.00,VWS V14.01,2013-07-23 05:35:00,
2013-07-23 01:36:00,70.3,70.3,29.69,WSW,245,0.0,0.0,100,0.00,,---,0.00,VWS V14.01,2013-07-23 05:36:00,
2013-07-23 01:40:00,70.3,70.3,29.69,WSW,245,0.0,0.0,100,0.00,,---,0.00,VWS V14.01,2013-07-23 05:40:00,
2013-07-23 01:41:00,70.3,70.3,29.69,WSW,245,0.0,0.0,100,0.00,,---,0.00,VWS V14.01,2013-07-23 05:41:00,
2013-07-23 01:45:00,70.3,70.3,29.69,WSW,245,0.0,0.0,100,0.00,,---,0.00,VWS V14.01,2013-07-23 05:45:00,
2013-07-23 01:46:00,70.3,70.3,29.69,WSW,245,0.0,0.0,100,0.00,,---,0.00,VWS V14.01,2013-07-23 05:46:00,
2013-07-23 01:50:00,70.3,70.3,29.68,WSW,245,0.0,0.0,100,0.00,,---,0.00,VWS V14.01,2013-07-23 05:50:00,
2013-07-23 01:51:00,70.3,70.3,29.68,WSW,245,0.0,0.0,100,0.00,,---,0.00,VWS V14.01,2013-07-23 05:51:00,
2013-07-23 01:55:00,70.3,70.3,29.68,WSW,245,0.0,0.0,100,0.00,,---,0.00,VWS V14.01,2013-07-23 05:55:00,
2013-07-23 01:56:00,70.3,70.3,29.68,WSW,245,0.0,0.0,100,0.00,,---,0.00,VWS V14.01,2013-07-23 05:56:00,
2013-07-23 02:00:00,70.3,70.3,29.68,WSW,245,0.0,0.0,100,0.00,,---,0.00,VWS V14.01,2013-07-23 06:00:00,
2013-07-23 02:01:00,70.3,70.3,29.68,WSW,245,0.0,0.0,100,0.00,,---,0.00,VWS V14.01,2013-07-23 06:01:00,
2013-07-23 02:05:00,70.3,70.3,29.68,WSW,245,0.0,0.0,100,0.00,,---,0.00,VWS V14.01,2013-07-23 06:05:00,
2013-07-23 02:06:00,70.3,70.3,29.68,WSW,245,0.0,0.0,100,0.00,,---,0.00,VWS V14.01,2013-07-23 06:06:00,
2013-07-23 02:10:00,70.3,70.3,29.68,WSW,245,0.0,0.0,100,0.00,,---,0.00,VWS V14.01,2013-07-23 06:10:00,
2013-07-23 02:11:00,70.3,70.3,29.68,WSW,245,0.0,0.0,100,0.00,,---,0.00,VWS V14.01,2013-07-23 06:11:00,
2013-07-23 02:15:00,70.3,70.3,29.67,WSW,245,0.0,0.0,100,0.00,,---,0.00,VWS V14.01,2013-07-23 06:15:00,
2013-07-23 02:16:00,70.3,70.3,29.67,WSW,245,0.0,0.0,100,0.00,,---,0.00,VWS V14.01,2013-07-23 06:16:00,
2013-07-23 02:20:00,70.3,70.3,29.67,WSW,245,0.0,0.0,100,0.00,,---,0.00,VWS V14.01,2013-07-23 06:20:00,
2013-07-23 02:21:00,70.3,70.3,29.67,WSW,245,0.0,0.0,100,0.00,,---,0.00,VWS V14.01,2013-07-23 06:21:00,
2013-07-23 02:25:00,70.3,70.3,29.67,WSW,245,0.0,0.0,100,0.00,,---,0.00,VWS V14.01,2013-07-23 06:25:00,
2013-07-23 02:26:00,70.3,70.3,29.67,WSW,245,0.0,1.0,100,0.00,,---,0.00,VWS V14.01,2013-07-23 06:26:00,
2013-07-23 02:30:00,70.3,70.3,29.67,SSW,196,1.0,1.0,100,0.00,,---,0.00,VWS V14.01,2013-07-23 06:30:00,
2013-07-23 02:31:00,70.3,70.3,29.67,SSW,196,0.0,1.0,100,0.00,,---,0.00,VWS V14.01,2013-07-23 06:31:00,
2013-07-23 02:35:00,70.3,70.3,29.67,SSW,196,0.0,1.0,100,0.00,,---,0.00,VWS V14.01,2013-07-23 06:35:00,
2013-07-23 02:36:00,70.3,70.3,29.67,SSW,196,0.0,0.0,100,0.00,,---,0.00,VWS V14.01,2013-07-23 06:36:00,
2013-07-23 02:40:00,70.3,70.3,29.67,SSW,196,0.0,2.0,100,0.00,,---,0.00,VWS V14.01,2013-07-23 06:40:00,
2013-07-23 02:41:00,70.3,70.3,29.68,SSW,196,2.0,3.0,100,0.00,,---,0.00,VWS V14.01,2013-07-23 06:41:00,
2013-07-23 02:45:00,70.4,70.4,29.68,SW,234,1.0,3.0,100,0.00,,---,0.00,VWS V14.01,2013-07-23 06:45:00,
2013-07-23 02:46:00,70.4,70.4,29.69,WSW,245,4.0,4.0,100,0.00,,---,0.00,VWS V14.01,2013-07-23 06:46:00,
2013-07-23 02:50:00,70.4,70.4,29.69,SSW,209,1.0,6.0,100,0.05,,---,0.05,VWS V14.01,2013-07-23 06:50:00,
2013-07-23 02:51:00,70.4,70.4,29.68,SSW,197,3.0,5.0,100,0.11,,---,0.11,VWS V14.01,2013-07-23 06:51:00,
2013-07-23 02:55:00,70.4,70.4,29.68,SW,223,0.0,5.0,100,0.19,,---,0.19,VWS V14.01,2013-07-23 06:55:00,
2013-07-23 02:56:00,70.4,70.4,29.68,SW,223,0.0,0.0,100,0.20,,---,0.20,VWS V14.01,2013-07-23 06:56:00,
2013-07-23 03:00:00,70.3,70.3,29.68,SSW,199,0.0,1.0,100,0.24,,---,0.24,VWS V14.01,2013-07-23 07:00:00,
2013-07-23 03:01:00,70.3,70.3,29.68,SSW,206,0.0,1.0,100,0.27,,---,0.27,VWS V14.01,2013-07-23 07:01:00,
2013-07-23 03:05:00,70.3,70.3,29.68,SSW,206,0.0,1.0,100,0.31,,---,0.31,VWS V14.01,2013-07-23 07:05:00,
2013-07-23 03:06:00,70.3,70.3,29.68,SSW,206,0.0,1.0,100,0.31,,---,0.31,VWS V14.01,2013-07-23 07:06:00,
2013-07-23 03:10:00,70.4,70.4,29.68,SW,230,0.0,2.0,100,0.31,,---,0.31,VWS V14.01,2013-07-23 07:10:00,
2013-07-23 03:11:00,70.4,70.4,29.68,SW,230,0.0,2.0,100,0.31,,---,0.31,VWS V14.01,2013-07-23 07:11:00,
2013-07-23 03:15:00,70.4,70.4,29.68,SW,230,0.0,2.0,100,0.31,,---,0.31,VWS V14.01,2013-07-23 07:15:00,
2013-07-23 03:16:00,70.4,70.4,29.68,SW,230,0.0,0.0,100,0.31,,---,0.31,VWS V14.01,2013-07-23 07:16:00,
2013-07-23 03:20:00,70.4,70.4,29.68,SW,230,0.0,0.0,100,0.31,,---,0.31,VWS V14.01,2013-07-23 07:20:00,
2013-07-23 03:21:00,70.3,70.3,29.68,SW,229,0.0,0.0,100,0.31,,---,0.31,VWS V14.01,2013-07-23 07:21:00,
2013-07-23 03:25:00,70.3,70.3,29.67,SW,230,0.0,0.0,100,0.31,,---,0.31,VWS V14.01,2013-07-23 07:25:00,
2013-07-23 03:26:00,70.3,70.3,29.68,SW,230,0.0,0.0,100,0.31,,---,0.31,VWS V14.01,2013-07-23 07:26:00,
2013-07-23 03:30:00,70.3,70.3,29.67,SW,230,0.0,0.0,100,0.31,,---,0.31,VWS V14.01,2013-07-23 07:30:00,
2013-07-23 03:31:00,70.3,70.3,29.67,SW,229,0.0,0.0,100,0.31,,---,0.31,VWS V14.01,2013-07-23 07:31:00,
2013-07-23 03:35:00,70.3,70.3,29.67,SW,230,0.0,0.0,100,0.31,,---,0.31,VWS V14.01,2013-07-23 07:35:00,
2013-07-23 03:36:00,70.3,70.3,29.67,SW,230,0.0,0.0,100,0.31,,---,0.31,VWS V14.01,2013-07-23 07:36:00,
2013-07-23 03:40:00,70.3,70.3,29.68,SW,229,0.0,0.0,100,0.31,,---,0.31,VWS V14.01,2013-07-23 07:40:00,
2013-07-23 03:41:00,70.3,70.3,29.68,SW,229,0.0,1.0,100,0.31,,---,0.31,VWS V14.01,2013-07-23 07:41:00,
2013-07-23 03:45:00,70.3,70.3,29.67,SW,230,0.0,1.0,100,0.31,,---,0.31,VWS V14.01,2013-07-23 07:45:00,
2013-07-23 03:46:00,70.3,70.3,29.67,SW,230,0.0,0.0,100,0.31,,---,0.31,VWS V14.01,2013-07-23 07:46:00,
2013-07-23 03:50:00,70.3,70.3,29.67,SW,230,0.0,0.0,100,0.31,,---,0.31,VWS V14.01,2013-07-23 07:50:00,
2013-07-23 03:51:00,70.3,70.3,29.67,SW,229,0.0,0.0,100,0.26,,---,0.31,VWS V14.01,2013-07-23 07:51:00,
2013-07-23 03:55:00,70.3,70.3,29.67,SW,230,0.0,0.0,100,0.26,,---,0.31,VWS V14.01,2013-07-23 07:55:00,
2013-07-23 03:56:00,70.3,70.3,29.67,SW,229,0.0,0.0,100,0.12,,---,0.31,VWS V14.01,2013-07-23 07:56:00,
2013-07-23 04:00:00,70.1,70.1,29.67,SW,230,0.0,0.0,100,0.12,,---,0.31,VWS V14.01,2013-07-23 08:00:00,
2013-07-23 04:01:00,70.1,70.1,29.67,SW,229,0.0,0.0,100,0.07,,---,0.31,VWS V14.01,2013-07-23 08:01:00,
2013-07-23 04:05:00,70.1,70.1,29.67,SW,230,0.0,0.0,100,0.07,,---,0.31,VWS V14.01,2013-07-23 08:05:00,
2013-07-23 04:06:00,70.1,70.1,29.67,SW,230,0.0,0.0,100,0.00,,---,0.31,VWS V14.01,2013-07-23 08:06:00,
2013-07-23 04:10:00,70.1,70.1,29.68,SW,230,0.0,0.0,100,0.00,,---,0.31,VWS V14.01,2013-07-23 08:10:00,
2013-07-23 04:11:00,70.1,70.1,29.68,SW,230,0.0,0.0,100,0.00,,---,0.31,VWS V14.01,2013-07-23 08:11:00,
2013-07-23 04:15:00,70.1,70.1,29.67,SW,229,0.0,0.0,100,0.00,,---,0.31,VWS V14.01,2013-07-23 08:15:00,
2013-07-23 04:16:00,70.1,70.1,29.68,SW,229,0.0,0.0,100,0.00,,---,0.31,VWS V14.01,2013-07-23 08:16:00,
2013-07-23 04:20:00,70.1,70.1,29.68,SW,229,0.0,0.0,100,0.00,,---,0.31,VWS V14.01,2013-07-23 08:20:00,
2013-07-23 04:21:00,70.1,70.1,29.67,SW,229,0.0,0.0,100,0.00,,---,0.31,VWS V14.01,2013-07-23 08:21:00,
2013-07-23 04:25:00,70.1,70.1,29.68,SW,230,0.0,0.0,100,0.00,,---,0.31,VWS V14.01,2013-07-23 08:25:00,
2013-07-23 04:26:00,70.1,70.1,29.67,SW,230,0.0,0.0,100,0.00,,---,0.31,VWS V14.01,2013-07-23 08:26:00,
2013-07-23 04:30:00,70.1,70.1,29.68,SW,229,0.0,0.0,100,0.00,,---,0.31,VWS V14.01,2013-07-23 08:30:00,
2013-07-23 04:31:00,70.1,70.1,29.68,SW,229,0.0,0.0,100,0.00,,---,0.31,VWS V14.01,2013-07-23 08:31:00,
2013-07-23 04:35:00,70.1,70.1,29.68,SW,229,0.0,0.0,100,0.00,,---,0.31,VWS V14.01,2013-07-23 08:35:00,
2013-07-23 04:36:00,70.1,70.1,29.68,SW,230,0.0,0.0,100,0.00,,---,0.31,VWS V14.01,2013-07-23 08:36:00,
2013-07-23 04:40:00,70.1,70.1,29.68,SW,229,0.0,0.0,100,0.00,,---,0.31,VWS V14.01,2013-07-23 08:40:00,
2013-07-23 04:41:00,70.1,70.1,29.68,SW,230,0.0,0.0,100,0.00,,---,0.31,VWS V14.01,2013-07-23 08:41:00,
2013-07-23 04:45:00,70.1,70.1,29.68,SW,230,0.0,0.0,100,0.00,,---,0.31,VWS V14.01,2013-07-23 08:45:00,
2013-07-23 04:46:00,70.1,70.1,29.68,SW,230,0.0,0.0,100,0.00,,---,0.31,VWS V14.01,2013-07-23 08:46:00,
2013-07-23 04:50:00,69.9,69.9,29.68,SW,230,0.0,0.0,100,0.00,,---,0.31,VWS V14.01,2013-07-23 08:50:00,
2013-07-23 04:51:00,69.9,69.9,29.68,SW,230,0.0,0.0,100,0.00,,---,0.31,VWS V14.01,2013-07-23 08:51:00,
2013-07-23 04:55:00,69.9,69.9,29.68,SW,229,0.0,0.0,100,0.00,,---,0.31,VWS V14.01,2013-07-23 08:55:00,
2013-07-23 04:56:00,69.9,69.9,29.68,SW,230,0.0,0.0,100,0.00,,---,0.31,VWS V14.01,2013-07-23 08:56:00,
2013-07-23 05:00:00,69.9,69.9,29.68,SW,229,0.0,0.0,100,0.00,,---,0.31,VWS V14.01,2013-07-23 09:00:00,
2013-07-23 05:01:00,70.1,70.1,29.67,SW,230,0.0,0.0,100,0.00,,---,0.31,VWS V14.01,2013-07-23 09:01:00,
2013-07-23 05:05:00,70.1,70.1,29.67,SW,230,0.0,0.0,100,0.00,,---,0.31,VWS V14.01,2013-07-23 09:05:00,
2013-07-23 05:06:00,70.1,70.1,29.67,SW,230,0.0,0.0,100,0.00,,---,0.31,VWS V14.01,2013-07-23 09:06:00,
2013-07-23 05:10:00,70.1,70.1,29.68,SW,229,0.0,0.0,100,0.00,,---,0.31,VWS V14.01,2013-07-23 09:10:00,
2013-07-23 05:11:00,70.1,70.1,29.68,SW,229,0.0,0.0,100,0.00,,---,0.31,VWS V14.01,2013-07-23 09:11:00,
2013-07-23 05:15:00,70.1,70.1,29.68,SW,229,0.0,0.0,100,0.00,,---,0.31,VWS V14.01,2013-07-23 09:15:00,
2013-07-23 05:16:00,70.1,70.1,29.68,SW,229,0.0,0.0,100,0.00,,---,0.31,VWS V14.01,2013-07-23 09:16:00,
2013-07-23 05:20:00,70.1,70.1,29.68,SW,230,0.0,0.0,100,0.00,,---,0.31,VWS V14.01,2013-07-23 09:20:00,
2013-07-23 05:21:00,70.1,70.1,29.68,SW,230,0.0,0.0,100,0.00,,---,0.31,VWS V14.01,2013-07-23 09:21:00,
2013-07-23 05:25:00,70.1,70.1,29.67,SW,229,0.0,0.0,100,0.00,,---,0.31,VWS V14.01,2013-07-23 09:25:00,
2013-07-23 05:26:00,70.1,70.1,29.68,SW,229,0.0,0.0,100,0.00,,---,0.31,VWS V14.01,2013-07-23 09:26:00,
2013-07-23 05:30:00,70.1,70.1,29.67,SW,229,0.0,0.0,100,0.00,,---,0.31,VWS V14.01,2013-07-23 09:30:00,
2013-07-23 05:31:00,70.1,70.1,29.67,SW,229,0.0,0.0,100,0.00,,---,0.31,VWS V14.01,2013-07-23 09:31:00,
2013-07-23 05:35:00,70.3,70.3,29.68,SW,229,0.0,0.0,100,0.00,,---,0.31,VWS V14.01,2013-07-23 09:35:00,
2013-07-23 05:36:00,70.3,70.3,29.68,SW,229,0.0,1.0,100,0.00,,---,0.31,VWS V14.01,2013-07-23 09:36:00,
2013-07-23 05:40:00,70.4,70.4,29.68,SW,230,0.0,1.0,100,0.00,,---,0.31,VWS V14.01,2013-07-23 09:40:00,
2013-07-23 05:41:00,70.4,70.4,29.68,SW,229,0.0,1.0,100,0.00,,---,0.31,VWS V14.01,2013-07-23 09:41:00,
2013-07-23 05:45:00,70.4,70.4,29.68,SW,229,0.0,1.0,100,0.00,,---,0.31,VWS V14.01,2013-07-23 09:45:00,
2013-07-23 05:46:00,70.4,70.4,29.68,SW,229,0.0,1.0,100,0.00,,---,0.31,VWS V14.01,2013-07-23 09:46:00,
2013-07-23 05:50:00,70.4,70.4,29.68,WSW,243,1.0,3.0,100,0.00,,---,0.31,VWS V14.01,2013-07-23 09:50:00,
2013-07-23 05:51:00,70.4,70.4,29.68,WNW,290,0.0,2.0,100,0.00,,---,0.31,VWS V14.01,2013-07-23 09:51:00,
2013-07-23 05:55:00,70.4,70.4,29.68,WNW,290,0.0,2.0,100,0.00,,---,0.31,VWS V14.01,2013-07-23 09:55:00,
2013-07-23 05:57:00,70.6,70.6,29.69,WNW,290,0.0,1.0,100,0.00,,---,0.31,VWS V14.01,2013-07-23 09:57:00,
2013-07-23 06:00:00,70.6,70.6,29.69,WNW,290,0.0,1.0,100,0.00,,---,0.31,VWS V14.01,2013-07-23 10:00:00,
2013-07-23 06:02:00,70.6,70.6,29.69,WNW,290,0.0,0.0,100,0.00,,---,0.31,VWS V14.01,2013-07-23 10:02:00,
2013-07-23 06:05:00,70.6,70.6,29.69,WNW,290,0.0,0.0,100,0.01,,---,0.32,VWS V14.01,2013-07-23 10:05:00,
2013-07-23 06:07:00,70.6,70.6,29.69,WNW,290,0.0,0.0,100,0.01,,---,0.32,VWS V14.01,2013-07-23 10:07:00,
2013-07-23 06:10:00,70.6,70.6,29.69,WNW,290,0.0,0.0,100,0.03,,---,0.34,VWS V14.01,2013-07-23 10:10:00,
2013-07-23 06:12:00,70.6,70.6,29.69,WNW,290,0.0,0.0,100,0.04,,---,0.35,VWS V14.01,2013-07-23 10:12:00,
2013-07-23 06:15:00,70.6,70.6,29.69,ENE,65,0.0,3.0,100,0.04,,---,0.35,VWS V14.01,2013-07-23 10:15:00,
2013-07-23 06:17:00,70.4,70.4,29.69,ENE,65,0.0,2.0,100,0.04,,---,0.35,VWS V14.01,2013-07-23 10:17:00,
2013-07-23 06:20:00,70.4,70.4,29.69,ENE,65,0.0,2.0,100,0.04,,---,0.35,VWS V14.01,2013-07-23 10:20:00,
2013-07-23 06:22:00,70.4,70.4,29.68,ENE,65,0.0,1.0,100,0.04,,---,0.35,VWS V14.01,2013-07-23 10:22:00,
2013-07-23 06:25:00,70.4,70.4,29.68,ENE,65,0.0,1.0,100,0.04,,---,0.35,VWS V14.01,2013-07-23 10:25:00,
2013-07-23 06:27:00,70.4,70.4,29.68,ENE,65,0.0,0.0,100,0.04,,---,0.35,VWS V14.01,2013-07-23 10:27:00,
2013-07-23 06:30:00,70.4,70.4,29.69,ENE,65,0.0,0.0,100,0.04,,---,0.35,VWS V14.01,2013-07-23 10:30:00,
2013-07-23 06:32:00,70.4,70.4,29.68,ENE,65,0.0,0.0,100,0.04,,---,0.35,VWS V14.01,2013-07-23 10:32:00,
2013-07-23 06:35:00,70.4,70.4,29.69,ENE,65,0.0,0.0,100,0.04,,---,0.35,VWS V14.01,2013-07-23 10:35:00,
2013-07-23 06:37:00,70.4,70.4,29.69,ENE,65,0.0,0.0,100,0.04,,---,0.35,VWS V14.01,2013-07-23 10:37:00,
2013-07-23 06:40:00,70.3,70.3,29.68,ENE,65,0.0,0.0,100,0.04,,---,0.35,VWS V14.01,2013-07-23 10:40:00,
2013-07-23 06:42:00,70.3,70.3,29.68,ENE,65,0.0,0.0,100,0.04,,---,0.35,VWS V14.01,2013-07-23 10:42:00,
2013-07-23 06:45:00,70.3,70.3,29.69,ENE,65,0.0,0.0,100,0.04,,---,0.35,VWS V14.01,2013-07-23 10:45:00,
2013-07-23 06:47:00,70.3,70.3,29.69,ENE,65,0.0,0.0,100,0.04,,---,0.35,VWS V14.01,2013-07-23 10:47:00,
2013-07-23 06:50:00,70.3,70.3,29.69,ENE,65,0.0,0.0,100,0.04,,---,0.35,VWS V14.01,2013-07-23 10:50:00,
2013-07-23 06:52:00,70.3,70.3,29.69,ENE,65,0.0,0.0,100,0.04,,---,0.35,VWS V14.01,2013-07-23 10:52:00,
2013-07-23 06:55:00,70.3,70.3,29.69,ENE,65,0.0,0.0,100,0.04,,---,0.35,VWS V14.01,2013-07-23 10:55:00,
2013-07-23 06:57:00,70.3,70.3,29.69,ENE,65,0.0,0.0,100,0.04,,---,0.35,VWS V14.01,2013-07-23 10:57:00,
2013-07-23 07:00:00,70.3,70.3,29.69,ENE,65,0.0,0.0,100,0.04,,---,0.35,VWS V14.01,2013-07-23 11:00:00,
2013-07-23 07:02:00,70.3,70.3,29.69,ENE,65,0.0,0.0,100,0.04,,---,0.35,VWS V14.01,2013-07-23 11:02:00,
2013-07-23 07:05:00,70.3,70.3,29.69,ENE,65,0.0,0.0,100,0.04,,---,0.35,VWS V14.01,2013-07-23 11:05:00,
2013-07-23 07:07:00,70.3,70.3,29.69,ENE,65,0.0,0.0,100,0.03,,---,0.35,VWS V14.01,2013-07-23 11:07:00,
2013-07-23 07:10:00,70.3,70.3,29.69,ENE,65,0.0,0.0,100,0.03,,---,0.35,VWS V14.01,2013-07-23 11:10:00,
2013-07-23 07:12:00,70.3,70.3,29.69,ENE,65,0.0,0.0,100,0.01,,---,0.35,VWS V14.01,2013-07-23 11:12:00,
2013-07-23 07:15:00,70.3,70.3,29.69,ENE,65,0.0,0.0,100,0.01,,---,0.35,VWS V14.01,2013-07-23 11:15:00,
2013-07-23 07:17:00,70.3,70.3,29.69,ENE,65,0.0,0.0,100,0.00,,---,0.35,VWS V14.01,2013-07-23 11:17:00,
2013-07-23 07:20:00,70.3,70.3,29.69,ENE,65,0.0,1.0,100,0.00,,---,0.35,VWS V14.01,2013-07-23 11:20:00,
2013-07-23 07:22:00,70.3,70.3,29.69,ENE,65,0.0,0.0,100,0.00,,---,0.35,VWS V14.01,2013-07-23 11:22:00,
2013-07-23 07:25:00,70.3,70.3,29.69,ENE,65,0.0,0.0,100,0.00,,---,0.35,VWS V14.01,2013-07-23 11:25:00,
2013-07-23 07:27:00,70.4,70.4,29.69,ENE,65,0.0,0.0,100,0.00,,---,0.35,VWS V14.01,2013-07-23 11:27:00,
2013-07-23 07:30:00,70.4,70.4,29.69,ENE,65,0.0,0.0,100,0.00,,---,0.35,VWS V14.01,2013-07-23 11:30:00,
2013-07-23 07:32:00,70.4,70.4,29.69,ENE,65,0.0,0.0,100,0.00,,---,0.35,VWS V14.01,2013-07-23 11:32:00,
2013-07-23 07:35:00,70.6,70.6,29.69,ENE,65,0.0,0.0,100,0.00,,---,0.35,VWS V14.01,2013-07-23 11:35:00,
2013-07-23 07:37:00,70.6,70.6,29.69,ENE,65,0.0,0.0,100,0.00,,---,0.35,VWS V14.01,2013-07-23 11:37:00,
2013-07-23 07:40:00,70.8,70.8,29.69,ENE,65,0.0,0.0,100,0.00,,---,0.35,VWS V14.01,2013-07-23 11:40:00,
2013-07-23 07:42:00,70.8,70.8,29.69,ENE,65,0.0,0.0,100,0.00,,---,0.35,VWS V14.01,2013-07-23 11:42:00,
2013-07-23 07:45:00,70.8,70.8,29.70,ENE,65,0.0,0.0,100,0.00,,---,0.35,VWS V14.01,2013-07-23 11:45:00,
2013-07-23 07:47:00,70.9,70.9,29.70,ENE,59,1.0,2.0,100,0.00,,---,0.35,VWS V14.01,2013-07-23 11:47:00,
2013-07-23 07:50:00,71.1,71.1,29.70,ENE,59,0.0,2.0,100,0.00,,---,0.35,VWS V14.01,2013-07-23 11:50:00,
2013-07-23 07:52:00,71.1,71.1,29.70,ENE,59,0.0,1.0,100,0.00,,---,0.35,VWS V14.01,2013-07-23 11:52:00,
2013-07-23 07:55:00,71.5,71.5,29.70,ENE,58,0.0,2.0,100,0.00,,---,0.35,VWS V14.01,2013-07-23 11:55:00,
2013-07-23 07:57:00,71.6,71.6,29.69,NNE,30,0.0,1.0,100,0.00,,---,0.35,VWS V14.01,2013-07-23 11:57:00,
2013-07-23 08:00:00,71.8,71.8,29.69,West,280,2.0,2.0,100,0.00,,---,0.35,VWS V14.01,2013-07-23 12:00:00,
2013-07-23 08:02:00,71.8,71.8,29.70,West,280,1.0,2.0,100,0.00,,---,0.35,VWS V14.01,2013-07-23 12:02:00,
2013-07-23 08:05:00,71.8,71.8,29.70,West,280,0.0,2.0,100,0.00,,---,0.35,VWS V14.01,2013-07-23 12:05:00,
2013-07-23 08:07:00,72.0,72.0,29.70,West,272,2.0,2.0,100,0.00,,---,0.35,VWS V14.01,2013-07-23 12:07:00,
2013-07-23 08:10:00,72.1,72.1,29.70,West,275,2.0,3.0,100,0.00,,---,0.35,VWS V14.01,2013-07-23 12:10:00,
2013-07-23 08:12:00,72.1,72.1,29.70,West,275,2.0,4.0,100,0.00,,---,0.35,VWS V14.01,2013-07-23 12:12:00,
2013-07-23 08:15:00,72.3,72.3,29.70,West,275,0.0,4.0,100,0.00,,---,0.35,VWS V14.01,2013-07-23 12:15:00,
2013-07-23 08:17:00,72.3,72.3,29.70,West,272,0.0,2.0,100,0.00,,---,0.35,VWS V14.01,2013-07-23 12:17:00,
2013-07-23 08:20:00,72.1,72.1,29.70,WSW,237,0.0,3.0,100,0.00,,---,0.35,VWS V14.01,2013-07-23 12:20:00,
2013-07-23 08:22:00,72.0,72.0,29.70,West,265,1.0,2.0,100,0.00,,---,0.35,VWS V14.01,2013-07-23 12:22:00,
2013-07-23 08:25:00,71.6,71.6,29.70,West,265,0.0,2.0,100,0.00,,---,0.35,VWS V14.01,2013-07-23 12:25:00,
2013-07-23 08:27:00,71.6,71.6,29.70,SSW,210,0.0,2.0,100,0.00,,---,0.35,VWS V14.01,2013-07-23 12:27:00,
2013-07-23 08:30:00,71.6,71.6,29.70,SSW,210,0.0,2.0,100,0.00,,---,0.35,VWS V14.01,2013-07-23 12:30:00,
2013-07-23 08:32:00,71.6,71.6,29.70,SSW,210,0.0,2.0,100,0.00,,---,0.35,VWS V14.01,2013-07-23 12:32:00,
2013-07-23 08:35:00,71.8,71.8,29.70,SSW,210,0.0,2.0,100,0.00,,---,0.35,VWS V14.01,2013-07-23 12:35:00,
2013-07-23 08:37:00,71.8,71.8,29.70,SSW,210,0.0,1.0,100,0.00,,---,0.35,VWS V14.01,2013-07-23 12:37:00,
2013-07-23 08:40:00,72.0,72.0,29.70,SSW,207,0.0,3.0,100,0.00,,---,0.35,VWS V14.01,2013-07-23 12:40:00,
2013-07-23 08:42:00,72.1,72.1,29.70,SSW,207,2.0,2.0,100,0.00,,---,0.35,VWS V14.01,2013-07-23 12:42:00,
2013-07-23 08:45:00,72.1,72.1,29.70,WNW,286,0.0,2.0,100,0.00,,---,0.35,VWS V14.01,2013-07-23 12:45:00,
2013-07-23 08:47:00,72.0,72.0,29.70,WNW,286,1.0,2.0,100,0.00,,---,0.35,VWS V14.01,2013-07-23 12:47:00,
2013-07-23 08:50:00,72.0,72.0,29.70,WNW,286,1.0,2.0,100,0.00,,---,0.35,VWS V14.01,2013-07-23 12:50:00,
2013-07-23 08:52:00,72.0,72.0,29.70,WNW,286,1.0,2.0,100,0.00,,---,0.35,VWS V14.01,2013-07-23 12:52:00,
2013-07-23 08:55:00,72.1,72.1,29.70,WNW,286,0.0,2.0,100,0.00,,---,0.35,VWS V14.01,2013-07-23 12:55:00,
2013-07-23 08:57:00,72.1,72.1,29.70,WNW,286,0.0,1.0,100,0.00,,---,0.35,VWS V14.01,2013-07-23 12:57:00,
2013-07-23 09:00:00,72.1,72.1,29.69,West,260,1.0,3.0,100,0.00,,---,0.35,VWS V14.01,2013-07-23 13:00:00,
2013-07-23 09:02:00,72.1,72.1,29.69,WSW,252,0.0,2.0,100,0.00,,---,0.35,VWS V14.01,2013-07-23 13:02:00,
2013-07-23 09:05:00,72.3,72.3,29.69,WSW,252,0.0,2.0,100,0.00,,---,0.35,VWS V14.01,2013-07-23 13:05:00,
2013-07-23 09:07:00,72.3,72.3,29.69,WSW,252,0.0,1.0,100,0.00,,---,0.35,VWS V14.01,2013-07-23 13:07:00,
2013-07-23 09:10:00,72.5,72.5,29.69,WSW,252,1.0,1.0,100,0.00,,---,0.35,VWS V14.01,2013-07-23 13:10:00,
2013-07-23 09:12:00,72.3,72.3,29.69,WSW,252,0.0,2.0,100,0.00,,---,0.35,VWS V14.01,2013-07-23 13:12:00,
2013-07-23 09:15:00,72.3,72.3,29.69,WSW,252,0.0,2.0,100,0.00,,---,0.35,VWS V14.01,2013-07-23 13:15:00,
2013-07-23 09:17:00,72.3,72.3,29.69,WSW,254,2.0,2.0,100,0.00,,---,0.35,VWS V14.01,2013-07-23 13:17:00,
2013-07-23 09:20:00,72.3,72.3,29.69,WSW,253,4.0,4.0,100,0.00,,---,0.35,VWS V14.01,2013-07-23 13:20:00,
2013-07-23 09:22:00,72.5,72.5,29.69,WSW,250,0.0,4.0,100,0.00,,---,0.35,VWS V14.01,2013-07-23 13:22:00,
2013-07-23 09:25:00,72.5,72.5,29.69,WSW,254,3.0,4.0,100,0.00,,---,0.35,VWS V14.01,2013-07-23 13:25:00,
2013-07-23 09:27:00,72.8,72.8,29.69,SW,222,2.0,3.0,100,0.00,,---,0.35,VWS V14.01,2013-07-23 13:27:00,
2013-07-23 09:30:00,73.0,73.0,29.69,West,262,0.0,3.0,100,0.00,,---,0.35,VWS V14.01,2013-07-23 13:30:00,
2013-07-23 09:32:00,73.2,73.2,29.69,West,262,2.0,2.0,100,0.00,,---,0.35,VWS V14.01,2013-07-23 13:32:00,
2013-07-23 09:35:00,73.2,73.2,29.69,West,271,2.0,4.0,100,0.00,,---,0.35,VWS V14.01,2013-07-23 13:35:00,
2013-07-23 09:37:00,73.2,73.2,29.69,WNW,293,2.0,3.0,100,0.00,,---,0.35,VWS V14.01,2013-07-23 13:37:00,
2013-07-23 09:40:00,73.3,73.3,29.69,West,268,0.0,4.0,100,0.00,,---,0.35,VWS V14.01,2013-07-23 13:40:00,
2013-07-23 09:42:00,73.5,73.5,29.69,West,266,4.0,4.0,100,0.00,,---,0.35,VWS V14.01,2013-07-23 13:42:00,
2013-07-23 09:45:00,73.7,73.7,29.69,SW,229,5.0,6.0,100,0.00,,---,0.35,VWS V14.01,2013-07-23 13:45:00,
2013-07-23 09:47:00,73.9,73.6,29.69,WSW,238,2.0,5.0,99,0.00,,---,0.35,VWS V14.01,2013-07-23 13:47:00,
2013-07-23 09:50:00,74.0,73.7,29.69,WSW,251,4.0,5.0,99,0.00,,---,0.35,VWS V14.01,2013-07-23 13:50:00,
2013-07-23 09:52:00,74.0,73.1,29.68,WSW,238,1.0,6.0,97,0.00,,---,0.35,VWS V14.01,2013-07-23 13:52:00,
2013-07-23 09:55:00,74.0,72.8,29.68,SW,232,9.0,9.0,96,0.00,,---,0.35,VWS V14.01,2013-07-23 13:55:00,
2013-07-23 09:57:00,74.2,71.7,29.69,WSW,252,3.0,11.0,92,0.00,,---,0.35,VWS V14.01,2013-07-23 13:57:00,
2013-07-23 10:00:00,74.6,71.5,29.68,SW,235,3.0,11.0,90,0.00,,---,0.35,VWS V14.01,2013-07-23 14:00:00,
2013-07-23 10:02:00,74.9,71.8,29.68,WSW,253,9.0,10.0,90,0.00,,---,0.35,VWS V14.01,2013-07-23 14:02:00,
2013-07-23 10:05:00,75.1,70.6,29.68,WNW,297,4.0,11.0,86,0.00,,---,0.35,VWS V14.01,2013-07-23 14:05:00,
2013-07-23 10:07:00,75.4,70.6,29.68,WNW,298,2.0,8.0,85,0.00,,---,0.35,VWS V14.01,2013-07-23 14:07:00,
2013-07-23 10:10:00,75.8,71.0,29.68,WSW,243,4.0,8.0,85,0.00,,---,0.35,VWS V14.01,2013-07-23 14:10:00,
2013-07-23 10:12:00,76.3,71.1,29.68,WSW,254,3.0,9.0,84,0.00,,---,0.35,VWS V14.01,2013-07-23 14:12:00,
2013-07-23 10:15:00,76.5,71.0,29.68,South,188,3.0,9.0,83,0.00,,---,0.35,VWS V14.01,2013-07-23 14:15:00,
2013-07-23 10:17:00,76.8,69.8,29.68,West,267,5.0,8.0,79,0.00,,---,0.35,VWS V14.01,2013-07-23 14:17:00,
2013-07-23 10:20:00,76.8,69.8,29.68,SW,226,2.0,8.0,79,0.00,,---,0.35,VWS V14.01,2013-07-23 14:20:00,
2013-07-23 10:22:00,77.0,70.7,29.68,WNW,288,1.0,3.0,81,0.00,,---,0.35,VWS V14.01,2013-07-23 14:22:00,
2013-07-23 10:25:00,77.0,71.8,29.68,WNW,284,0.0,4.0,84,0.00,,---,0.35,VWS V14.01,2013-07-23 14:25:00,
2013-07-23 10:27:00,77.2,71.3,29.68,WNW,288,1.0,4.0,82,0.00,,---,0.35,VWS V14.01,2013-07-23 14:27:00,
2013-07-23 10:30:00,77.2,70.9,29.68,WNW,288,0.0,4.0,81,0.00,,---,0.35,VWS V14.01,2013-07-23 14:30:00,
2013-07-23 10:32:00,77.2,70.2,29.68,WSW,257,5.0,7.0,79,0.00,,---,0.35,VWS V14.01,2013-07-23 14:32:00,
2013-07-23 10:35:00,77.4,69.2,29.68,SW,225,1.0,9.0,76,0.00,,---,0.35,VWS V14.01,2013-07-23 14:35:00,
2013-07-23 10:37:00,77.6,70.2,29.67,WSW,253,2.0,3.0,78,0.00,,---,0.35,VWS V14.01,2013-07-23 14:37:00,
2013-07-23 10:40:00,77.9,69.7,29.68,WNW,285,5.0,10.0,76,0.00,,---,0.35,VWS V14.01,2013-07-23 14:40:00,
2013-07-23 10:42:00,78.3,69.3,29.67,WSW,238,4.0,10.0,74,0.00,,---,0.35,VWS V14.01,2013-07-23 14:42:00,
2013-07-23 10:45:00,78.3,68.9,29.67,SW,226,3.0,11.0,73,0.00,,---,0.35,VWS V14.01,2013-07-23 14:45:00,
2013-07-23 10:47:00,78.3,68.5,29.67,WNW,301,4.0,10.0,72,0.00,,---,0.35,VWS V14.01,2013-07-23 14:47:00,
2013-07-23 10:50:00,78.3,69.7,29.67,West,263,0.0,10.0,75,0.00,,---,0.35,VWS V14.01,2013-07-23 14:50:00,
2013-07-23 10:52:00,78.5,69.9,29.67,WNW,288,4.0,9.0,75,0.00,,---,0.35,VWS V14.01,2013-07-23 14:52:00,
2013-07-23 10:55:00,78.5,69.5,29.67,WNW,294,1.0,9.0,74,0.00,,---,0.35,VWS V14.01,2013-07-23 14:55:00,
2013-07-23 10:57:00,78.6,69.6,29.67,West,265,9.0,11.0,74,0.00,,---,0.35,VWS V14.01,2013-07-23 14:57:00,
2013-07-23 11:00:00,79.0,69.2,29.67,West,261,9.0,11.0,72,0.00,,---,0.35,VWS V14.01,2013-07-23 15:00:00,
2013-07-23 11:02:00,79.2,68.6,29.68,SW,229,7.0,14.0,70,0.00,,---,0.35,VWS V14.01,2013-07-23 15:02:00,
2013-07-23 11:05:00,79.0,68.8,29.68,West,281,6.0,15.0,71,0.00,,---,0.35,VWS V14.01,2013-07-23 15:05:00,
2013-07-23 11:07:00,79.0,68.8,29.68,WSW,245,3.0,11.0,71,0.00,,---,0.35,VWS V14.01,2013-07-23 15:07:00,
2013-07-23 11:10:00,79.2,70.6,29.67,NW,306,1.0,11.0,75,0.00,,---,0.35,VWS V14.01,2013-07-23 15:10:00,
2013-07-23 11:12:00,79.2,68.6,29.68,NW,306,0.0,10.0,70,0.00,,---,0.35,VWS V14.01,2013-07-23 15:12:00,
2013-07-23 11:15:00,79.4,69.6,29.67,WSW,250,3.0,10.0,72,0.00,,---,0.35,VWS V14.01,2013-07-23 15:15:00,
2013-07-23 11:17:00,79.8,70.0,29.67,NW,305,3.0,6.0,72,0.00,,---,0.35,VWS V14.01,2013-07-23 15:17:00,
2013-07-23 11:18:00,79.8,70.0,29.67,NW,304,1.0,6.0,72,0.00,,---,0.35,VWS V14.01,2013-07-23 15:18:00,
2013-07-23 11:20:00,79.9,70.1,29.67,WSW,242,2.0,13.0,72,0.00,,---,0.35,VWS V14.01,2013-07-23 15:20:00,
2013-07-23 11:23:00,79.9,69.2,29.68,NW,305,2.0,6.0,70,0.00,,---,0.35,VWS V14.01,2013-07-23 15:23:00,
2013-07-23 11:25:00,79.9,69.2,29.68,NW,305,6.0,10.0,70,0.00,,---,0.35,VWS V14.01,2013-07-23 15:25:00,
2013-07-23 11:28:00,79.8,68.7,29.68,WNW,287,4.0,13.0,69,0.00,,---,0.35,VWS V14.01,2013-07-23 15:28:00,
2013-07-23 11:30:00,79.8,68.7,29.68,West,269,6.0,13.0,69,0.00,,---,0.35,VWS V14.01,2013-07-23 15:30:00,
2013-07-23 11:33:00,79.6,69.4,29.68,NW,306,1.0,6.0,71,0.00,,---,0.35,VWS V14.01,2013-07-23 15:33:00,
2013-07-23 11:35:00,79.6,69.0,29.68,West,278,12.0,12.0,70,0.00,,---,0.35,VWS V14.01,2013-07-23 15:35:00,
2013-07-23 11:38:00,79.4,69.2,29.69,NNE,19,2.0,12.0,71,0.00,,---,0.35,VWS V14.01,2013-07-23 15:38:00,
2013-07-23 11:40:00,79.4,68.3,29.68,NNW,328,4.0,12.0,69,0.00,,---,0.35,VWS V14.01,2013-07-23 15:40:00,
2013-07-23 11:43:00,79.4,69.6,29.68,WNW,298,3.0,6.0,72,0.00,,---,0.35,VWS V14.01,2013-07-23 15:43:00,
2013-07-23 11:45:00,79.6,69.4,29.68,WSW,258,5.0,10.0,71,0.00,,---,0.35,VWS V14.01,2013-07-23 15:45:00,
2013-07-23 11:48:00,79.8,68.7,29.68,West,267,5.0,9.0,69,0.00,,---,0.35,VWS V14.01,2013-07-23 15:48:00,
2013-07-23 11:50:00,79.9,69.2,29.68,West,281,2.0,9.0,70,0.00,,---,0.35,VWS V14.01,2013-07-23 15:50:00,
2013-07-23 11:53:00,80.1,70.3,29.68,WSW,246,6.0,6.0,72,0.00,,---,0.35,VWS V14.01,2013-07-23 15:53:00,
2013-07-23 11:55:00,80.1,69.0,29.68,WSW,254,1.0,9.0,69,0.00,,---,0.35,VWS V14.01,2013-07-23 15:55:00,
2013-07-23 11:58:00,80.3,68.3,29.68,NW,319,1.0,9.0,67,0.00,,---,0.35,VWS V14.01,2013-07-23 15:58:00,
2013-07-23 12:00:00,80.5,68.5,29.68,WNW,292,3.0,9.0,67,0.00,,---,0.35,VWS V14.01,2013-07-23 16:00:00,
2013-07-23 12:03:00,80.7,69.6,29.68,West,264,6.0,11.0,69,0.00,,---,0.35,VWS V14.01,2013-07-23 16:03:00,
2013-07-23 12:05:00,80.7,68.3,29.68,WNW,296,4.0,11.0,66,0.00,,---,0.35,VWS V14.01,2013-07-23 16:05:00,
2013-07-23 12:08:00,80.5,68.5,29.69,West,268,5.0,13.0,67,0.00,,---,0.35,VWS V14.01,2013-07-23 16:08:00,
2013-07-23 12:10:00,80.7,68.7,29.69,WNW,302,3.0,13.0,67,0.00,,---,0.35,VWS V14.01,2013-07-23 16:10:00,
2013-07-23 12:13:00,80.9,68.9,29.68,WNW,300,3.0,10.0,67,0.00,,---,0.35,VWS V14.01,2013-07-23 16:13:00,
2013-07-23 12:15:00,81.1,69.1,29.68,WNW,302,4.0,10.0,67,0.00,,---,0.35,VWS V14.01,2013-07-23 16:15:00,
2013-07-23 12:18:00,81.6,72.5,29.68,WSW,258,1.0,7.0,74,0.00,,---,0.35,VWS V14.01,2013-07-23 16:18:00,
2013-07-23 12:20:00,81.8,71.1,29.68,North,355,1.0,7.0,70,0.00,,---,0.35,VWS V14.01,2013-07-23 16:20:00,
2013-07-23 12:23:00,82.4,67.6,29.68,West,277,9.0,13.0,61,0.00,,---,0.35,VWS V14.01,2013-07-23 16:23:00,
2013-07-23 12:25:00,82.6,67.8,29.68,WNW,291,5.0,13.0,61,0.00,,---,0.35,VWS V14.01,2013-07-23 16:25:00,
2013-07-23 12:28:00,83.2,70.2,29.68,WNW,291,2.0,11.0,65,0.00,,---,0.35,VWS V14.01,2013-07-23 16:28:00,
2013-07-23 12:30:00,83.2,68.8,29.68,WSW,256,5.0,11.0,62,0.00,,---,0.35,VWS V14.01,2013-07-23 16:30:00,
2013-07-23 12:33:00,83.6,68.7,29.68,WNW,286,4.0,9.0,61,0.00,,---,0.35,VWS V14.01,2013-07-23 16:33:00,
2013-07-23 12:35:00,83.6,69.7,29.68,West,273,0.0,9.0,63,0.00,,---,0.35,VWS V14.01,2013-07-23 16:35:00,
2013-07-23 12:38:00,84.0,69.1,29.68,NW,323,2.0,7.0,61,0.00,,---,0.35,VWS V14.01,2013-07-23 16:38:00,
2013-07-23 12:40:00,84.0,70.5,29.68,WNW,286,0.0,7.0,64,0.00,,---,0.35,VWS V14.01,2013-07-23 16:40:00,
2013-07-23 12:43:00,84.1,68.7,29.67,NNW,348,2.0,6.0,60,0.00,,---,0.35,VWS V14.01,2013-07-23 16:43:00,
2013-07-23 12:45:00,84.1,70.6,29.67,NNW,343,3.0,6.0,64,0.00,,---,0.35,VWS V14.01,2013-07-23 16:45:00,
2013-07-23 12:48:00,84.0,69.6,29.68,NW,324,3.0,4.0,62,0.00,,---,0.35,VWS V14.01,2013-07-23 16:48:00,
2013-07-23 12:50:00,83.8,69.4,29.68,NW,322,0.0,4.0,62,0.00,,---,0.35,VWS V14.01,2013-07-23 16:50:00,
2013-07-23 12:53:00,83.4,69.9,29.68,WNW,288,1.0,6.0,64,0.00,,---,0.35,VWS V14.01,2013-07-23 16:53:00,
2013-07-23 12:55:00,83.2,69.3,29.68,SSW,211,9.0,9.0,63,0.00,,---,0.35,VWS V14.01,2013-07-23 16:55:00,
2013-07-23 12:58:00,82.6,69.2,29.68,West,268,1.0,9.0,64,0.00,,---,0.35,VWS V14.01,2013-07-23 16:58:00,
2013-07-23 13:00:00,82.4,68.6,29.68,NNW,333,0.0,9.0,63,0.00,,---,0.35,VWS V14.01,2013-07-23 17:00:00,
2013-07-23 13:03:00,82.0,68.2,29.68,NNW,336,2.0,3.0,63,0.00,,---,0.35,VWS V14.01,2013-07-23 17:03:00,
2013-07-23 13:05:00,82.0,68.6,29.68,West,269,5.0,10.0,64,0.00,,---,0.35,VWS V14.01,2013-07-23 17:05:00,
2013-07-23 13:08:00,81.8,68.9,29.68,NNE,15,2.0,5.0,65,0.00,,---,0.35,VWS V14.01,2013-07-23 17:08:00,
2013-07-23 13:10:00,81.6,68.2,29.68,NNE,25,1.0,5.0,64,0.00,,---,0.35,VWS V14.01,2013-07-23 17:10:00,
2013-07-23 13:13:00,81.6,69.6,29.68,NW,313,2.0,4.0,67,0.00,,---,0.35,VWS V14.01,2013-07-23 17:13:00,
2013-07-23 13:15:00,81.6,69.2,29.69,WNW,286,0.0,4.0,66,0.00,,---,0.35,VWS V14.01,2013-07-23 17:15:00,
2013-07-23 13:19:00,81.6,69.6,29.68,WNW,285,1.0,5.0,67,0.00,,---,0.35,VWS V14.01,2013-07-23 17:19:00,
2013-07-23 13:20:00,81.8,69.3,29.68,WSW,244,0.0,5.0,66,0.00,,---,0.35,VWS V14.01,2013-07-23 17:20:00,
2013-07-23 13:24:00,82.0,68.6,29.69,NNW,334,1.0,3.0,64,0.00,,---,0.35,VWS V14.01,2013-07-23 17:24:00,
2013-07-23 13:25:00,82.2,69.7,29.68,WNW,295,0.0,4.0,66,0.00,,---,0.35,VWS V14.01,2013-07-23 17:25:00,
2013-07-23 13:29:00,82.4,69.9,29.68,WSW,241,0.0,5.0,66,0.00,,---,0.35,VWS V14.01,2013-07-23 17:29:00,
2013-07-23 13:30:00,82.6,70.5,29.68,West,277,4.0,5.0,67,0.00,,---,0.35,VWS V14.01,2013-07-23 17:30:00,
2013-07-23 13:34:00,83.2,70.7,29.68,West,279,1.0,5.0,66,0.00,,---,0.35,VWS V14.01,2013-07-23 17:34:00,
2013-07-23 13:35:00,83.4,69.0,29.68,West,274,0.0,5.0,62,0.00,,---,0.35,VWS V14.01,2013-07-23 17:35:00,
2013-07-23 13:39:00,83.4,68.6,29.68,WSW,242,0.0,7.0,61,0.00,,---,0.35,VWS V14.01,2013-07-23 17:39:00,
2013-07-23 13:40:00,83.4,69.0,29.68,WNW,292,2.0,7.0,62,0.00,,---,0.35,VWS V14.01,2013-07-23 17:40:00,
2013-07-23 13:44:00,83.4,70.4,29.68,NW,321,2.0,3.0,65,0.00,,---,0.35,VWS V14.01,2013-07-23 17:44:00,
2013-07-23 13:45:00,83.4,69.5,29.68,West,277,1.0,6.0,63,0.00,,---,0.35,VWS V14.01,2013-07-23 17:45:00,
2013-07-23 13:49:00,83.6,68.7,29.68,WNW,302,2.0,4.0,61,0.00,,---,0.35,VWS V14.01,2013-07-23 17:49:00,
2013-07-23 13:50:00,83.6,70.6,29.67,West,259,3.0,4.0,65,0.00,,---,0.35,VWS V14.01,2013-07-23 17:50:00,
2013-07-23 13:54:00,84.0,67.7,29.68,WSW,248,5.0,14.0,58,0.00,,---,0.35,VWS V14.01,2013-07-23 17:54:00,
2013-07-23 13:55:00,84.1,67.7,29.68,WNW,288,7.0,14.0,58,0.00,,---,0.35,VWS V14.01,2013-07-23 17:55:00,
2013-07-23 13:59:00,84.5,70.5,29.67,WSW,252,3.0,10.0,63,0.00,,---,0.35,VWS V14.01,2013-07-23 17:59:00,
2013-07-23 14:00:00,84.7,70.7,29.67,NW,305,3.0,10.0,63,0.00,,---,0.35,VWS V14.01,2013-07-23 18:00:00,
2013-07-23 14:04:00,85.1,68.2,29.67,NW,311,3.0,7.0,57,0.00,,---,0.35,VWS V14.01,2013-07-23 18:04:00,
2013-07-23 14:05:00,85.1,68.2,29.67,WSW,257,4.0,7.0,57,0.00,,---,0.35,VWS V14.01,2013-07-23 18:05:00,
2013-07-23 14:09:00,85.5,70.5,29.68,North,355,6.0,12.0,61,0.00,,---,0.35,VWS V14.01,2013-07-23 18:09:00,
2013-07-23 14:10:00,85.5,70.0,29.68,WNW,302,1.0,12.0,60,0.00,,---,0.35,VWS V14.01,2013-07-23 18:10:00,
2013-07-23 14:14:00,85.7,67.7,29.68,West,273,4.0,12.0,55,0.00,,---,0.35,VWS V14.01,2013-07-23 18:14:00,
2013-07-23 14:15:00,85.7,68.2,29.68,WSW,238,3.0,12.0,56,0.00,,---,0.35,VWS V14.01,2013-07-23 18:15:00,
2013-07-23 14:19:00,85.9,70.4,29.67,WNW,290,2.0,5.0,60,0.00,,---,0.35,VWS V14.01,2013-07-23 18:19:00,
2013-07-23 14:20:00,85.9,68.4,29.67,NNW,334,0.0,5.0,56,0.00,,---,0.35,VWS V14.01,2013-07-23 18:20:00,
2013-07-23 14:24:00,86.1,67.5,29.68,West,277,9.0,10.0,54,0.00,,---,0.35,VWS V14.01,2013-07-23 18:24:00,
2013-07-23 14:25:00,86.1,66.4,29.68,West,260,6.0,13.0,52,0.00,,---,0.35,VWS V14.01,2013-07-23 18:25:00,
2013-07-23 14:29:00,86.1,67.5,29.67,NNE,31,1.0,9.0,54,0.00,,---,0.35,VWS V14.01,2013-07-23 18:29:00,
2013-07-23 14:30:00,86.1,68.1,29.67,North,10,1.0,9.0,55,0.00,,---,0.35,VWS V14.01,2013-07-23 18:30:00,
2013-07-23 14:35:00,86.3,68.2,29.67,South,191,1.0,7.0,55,0.00,,---,0.35,VWS V14.01,2013-07-23 18:35:00,
2013-07-23 14:40:00,86.5,66.8,29.67,West,259,11.0,12.0,52,0.00,,---,0.35,VWS V14.01,2013-07-23 18:40:00,
2013-07-23 14:45:00,86.7,68.6,29.67,SW,227,1.0,11.0,55,0.00,,---,0.35,VWS V14.01,2013-07-23 18:45:00,
2013-07-23 14:50:00,87.0,68.4,29.67,NW,323,1.0,11.0,54,0.00,,---,0.35,VWS V14.01,2013-07-23 18:50:00,
2013-07-23 14:55:00,87.2,67.4,29.67,NW,309,3.0,3.0,52,0.00,,---,0.35,VWS V14.01,2013-07-23 18:55:00,
2013-07-23 15:00:00,87.2,67.4,29.67,NNW,336,2.0,2.0,52,0.00,,---,0.35,VWS V14.01,2013-07-23 19:00:00,
2013-07-23 15:05:00,87.4,68.2,29.66,NW,319,2.0,3.0,53,0.00,,---,0.35,VWS V14.01,2013-07-23 19:05:00,
2013-07-23 15:10:00,87.6,68.9,29.66,WNW,288,1.0,6.0,54,0.00,,---,0.35,VWS V14.01,2013-07-23 19:10:00,
2013-07-23 15:11:00,87.6,70.5,29.66,WNW,286,0.0,2.0,57,0.00,,---,0.35,VWS V14.01,2013-07-23 19:11:00,
2013-07-23 15:15:00,87.8,70.7,29.66,NW,306,5.0,5.0,57,0.00,,---,0.35,VWS V14.01,2013-07-23 19:15:00,
2013-07-23 15:16:00,88.0,68.2,29.66,West,271,6.0,6.0,52,0.00,,---,0.35,VWS V14.01,2013-07-23 19:16:00,
2013-07-23 15:20:00,88.2,67.8,29.66,WNW,293,0.0,6.0,51,0.00,,---,0.35,VWS V14.01,2013-07-23 19:20:00,
2013-07-23 15:21:00,88.2,69.5,29.66,NE,49,2.0,4.0,54,0.00,,---,0.35,VWS V14.01,2013-07-23 19:21:00,
2013-07-23 15:25:00,88.2,71.1,29.66,WNW,292,0.0,4.0,57,0.00,,---,0.35,VWS V14.01,2013-07-23 19:25:00,
2013-07-23 15:26:00,88.4,69.1,29.66,WNW,295,0.0,2.0,53,0.00,,---,0.35,VWS V14.01,2013-07-23 19:26:00,
2013-07-23 15:30:00,88.4,70.2,29.65,NW,315,2.0,6.0,55,0.00,,---,0.35,VWS V14.01,2013-07-23 19:30:00,
2013-07-23 15:31:00,88.6,68.7,29.65,WSW,251,1.0,2.0,52,0.00,,---,0.35,VWS V14.01,2013-07-23 19:31:00,
2013-07-23 15:35:00,88.6,68.2,29.66,North,11,2.0,2.0,51,0.00,,---,0.35,VWS V14.01,2013-07-23 19:35:00,
2013-07-23 15:37:00,88.6,69.3,29.65,NW,308,1.0,2.0,53,0.00,,---,0.35,VWS V14.01,2013-07-23 19:37:00,
2013-07-23 15:40:00,88.6,69.8,29.65,East,86,2.0,3.0,54,0.00,,---,0.35,VWS V14.01,2013-07-23 19:40:00,
2013-07-23 15:42:00,88.8,68.4,29.65,West,267,1.0,4.0,51,0.00,,---,0.35,VWS V14.01,2013-07-23 19:42:00,
2013-07-23 15:45:00,88.8,70.0,29.65,West,267,5.0,5.0,54,0.00,,---,0.35,VWS V14.01,2013-07-23 19:45:00,
2013-07-23 15:47:00,88.6,67.0,29.65,East,80,0.0,6.0,49,0.00,,---,0.35,VWS V14.01,2013-07-23 19:47:00,
2013-07-23 15:50:00,88.8,70.0,29.65,WSW,247,0.0,6.0,54,0.00,,---,0.35,VWS V14.01,2013-07-23 19:50:00,
2013-07-23 15:52:00,88.8,68.9,29.65,NNW,348,0.0,4.0,52,0.00,,---,0.35,VWS V14.01,2013-07-23 19:52:00,
2013-07-23 15:55:00,88.8,70.0,29.65,NNW,328,0.0,6.0,54,0.00,,---,0.35,VWS V14.01,2013-07-23 19:55:00,
2013-07-23 15:57:00,88.8,67.8,29.65,NW,315,1.0,3.0,50,0.00,,---,0.35,VWS V14.01,2013-07-23 19:57:00,
2013-07-23 16:00:00,88.6,68.2,29.65,NNE,19,2.0,4.0,51,0.00,,---,0.35,VWS V14.01,2013-07-23 20:00:00,
2013-07-23 16:02:00,88.4,68.6,29.65,NW,317,1.0,4.0,52,0.00,,---,0.35,VWS V14.01,2013-07-23 20:02:00,
2013-07-23 16:05:00,88.4,68.0,29.65,WNW,284,2.0,7.0,51,0.00,,---,0.35,VWS V14.01,2013-07-23 20:05:00,
2013-07-23 16:07:00,88.4,67.4,29.65,WSW,250,1.0,3.0,50,0.00,,---,0.35,VWS V14.01,2013-07-23 20:07:00,
2013-07-23 16:10:00,88.6,69.3,29.65,West,269,3.0,5.0,53,0.00,,---,0.35,VWS V14.01,2013-07-23 20:10:00,
2013-07-23 16:12:00,88.8,68.4,29.65,WSW,246,1.0,3.0,51,0.00,,---,0.35,VWS V14.01,2013-07-23 20:12:00,
2013-07-23 16:15:00,89.0,68.5,29.65,NNE,16,3.0,4.0,51,0.00,,---,0.35,VWS V14.01,2013-07-23 20:15:00,
2013-07-23 16:17:00,89.3,68.2,29.65,West,265,3.0,3.0,50,0.00,,---,0.35,VWS V14.01,2013-07-23 20:17:00,
2013-07-23 16:20:00,89.5,70.1,29.65,West,281,0.0,5.0,53,0.00,,---,0.35,VWS V14.01,2013-07-23 20:20:00,
2013-07-23 16:22:00,89.5,68.4,29.65,NW,316,3.0,5.0,50,0.00,,---,0.35,VWS V14.01,2013-07-23 20:22:00,
2013-07-23 16:25:00,89.7,68.0,29.65,North,5,0.0,5.0,49,0.00,,---,0.35,VWS V14.01,2013-07-23 20:25:00,
2013-07-23 16:27:00,89.7,69.2,29.65,NNE,17,1.0,3.0,51,0.00,,---,0.35,VWS V14.01,2013-07-23 20:27:00,
2013-07-23 16:30:00,89.7,68.6,29.64,WSW,241,0.0,3.0,50,0.00,,---,0.35,VWS V14.01,2013-07-23 20:30:00,
2013-07-23 16:32:00,89.9,69.4,29.64,West,267,0.0,4.0,51,0.00,,---,0.35,VWS V14.01,2013-07-23 20:32:00,
2013-07-23 16:35:00,90.1,67.2,29.64,NW,320,1.0,7.0,47,0.00,,---,0.35,VWS V14.01,2013-07-23 20:35:00,
2013-07-23 16:38:00,90.3,70.3,29.64,WSW,257,1.0,5.0,52,0.00,,---,0.35,VWS V14.01,2013-07-23 20:38:00,
2013-07-23 16:40:00,90.3,68.0,29.64,NNW,333,1.0,5.0,48,0.00,,---,0.35,VWS V14.01,2013-07-23 20:40:00,
2013-07-23 16:43:00,90.5,69.3,29.64,SSE,161,2.0,2.0,50,0.00,,---,0.35,VWS V14.01,2013-07-23 20:43:00,
2013-07-23 16:45:00,90.7,68.9,29.63,East,96,3.0,3.0,49,0.00,,---,0.35,VWS V14.01,2013-07-23 20:45:00,
2013-07-23 16:48:00,91.0,68.6,29.64,North,349,2.0,9.0,48,0.00,,---,0.35,VWS V14.01,2013-07-23 20:48:00,
2013-07-23 16:50:00,91.0,66.7,29.63,West,281,2.0,9.0,45,0.00,,---,0.35,VWS V14.01,2013-07-23 20:50:00,
2013-07-23 16:53:00,91.0,68.6,29.63,North,5,0.0,2.0,48,0.00,,---,0.35,VWS V14.01,2013-07-23 20:53:00,
2013-07-23 16:55:00,91.0,68.0,29.63,West,271,3.0,3.0,47,0.00,,---,0.35,VWS V14.01,2013-07-23 20:55:00,
2013-07-23 16:58:00,91.0,66.7,29.63,NW,313,1.0,4.0,45,0.00,,---,0.35,VWS V14.01,2013-07-23 20:58:00,
2013-07-23 17:00:00,90.7,66.5,29.63,WNW,298,0.0,4.0,45,0.00,,---,0.35,VWS V14.01,2013-07-23 21:00:00,
2013-07-23 17:03:00,90.5,68.2,29.62,NNW,333,0.0,5.0,48,0.00,,---,0.35,VWS V14.01,2013-07-23 21:03:00,
2013-07-23 17:05:00,90.3,68.6,29.62,WNW,293,0.0,5.0,49,0.00,,---,0.35,VWS V14.01,2013-07-23 21:05:00,
2013-07-23 17:08:00,90.3,69.7,29.62,NW,322,2.0,3.0,51,0.00,,---,0.35,VWS V14.01,2013-07-23 21:08:00,
2013-07-23 17:10:00,90.5,68.8,29.62,WNW,303,1.0,3.0,49,0.00,,---,0.35,VWS V14.01,2013-07-23 21:10:00,
2013-07-23 17:14:00,90.7,67.1,29.62,WNW,292,2.0,3.0,46,0.00,,---,0.35,VWS V14.01,2013-07-23 21:14:00,
2013-07-23 17:15:00,91.0,68.0,29.62,WSW,252,0.0,3.0,47,0.00,,---,0.35,VWS V14.01,2013-07-23 21:15:00,
2013-07-23 17:19:00,91.4,69.0,29.62,West,271,3.0,3.0,48,0.00,,---,0.35,VWS V14.01,2013-07-23 21:19:00,
2013-07-23 17:20:00,91.4,67.7,29.62,West,279,3.0,3.0,46,0.00,,---,0.35,VWS V14.01,2013-07-23 21:20:00,
2013-07-23 17:24:00,91.6,67.9,29.61,ESE,112,0.0,3.0,46,0.00,,---,0.35,VWS V14.01,2013-07-23 21:24:00,
2013-07-23 17:25:00,91.8,69.3,29.61,ESE,104,0.0,3.0,48,0.00,,---,0.35,VWS V14.01,2013-07-23 21:25:00,
2013-07-23 17:29:00,92.1,68.4,29.61,West,281,1.0,3.0,46,0.00,,---,0.35,VWS V14.01,2013-07-23 21:29:00,
2013-07-23 17:30:00,92.1,68.4,29.61,West,281,1.0,3.0,46,0.00,,---,0.35,VWS V14.01,2013-07-23 21:30:00,
2013-07-23 17:34:00,92.5,66.1,29.61,NW,309,2.0,4.0,42,0.00,,---,0.35,VWS V14.01,2013-07-23 21:34:00,
2013-07-23 17:35:00,92.5,66.8,29.61,NW,306,0.0,4.0,43,0.00,,---,0.35,VWS V14.01,2013-07-23 21:35:00,
2013-07-23 17:39:00,92.7,70.2,29.61,WNW,288,0.0,3.0,48,0.00,,---,0.35,VWS V14.01,2013-07-23 21:39:00,
2013-07-23 17:40:00,92.7,68.9,29.62,NNW,344,2.0,4.0,46,0.00,,---,0.35,VWS V14.01,2013-07-23 21:40:00,
2013-07-23 17:44:00,92.7,70.2,29.61,WNW,301,0.0,4.0,48,0.00,,---,0.35,VWS V14.01,2013-07-23 21:44:00,
2013-07-23 17:45:00,92.7,67.6,29.61,WNW,290,2.0,4.0,44,0.00,,---,0.35,VWS V14.01,2013-07-23 21:45:00,
2013-07-23 17:49:00,92.5,67.4,29.61,WNW,298,1.0,3.0,44,0.00,,---,0.35,VWS V14.01,2013-07-23 21:49:00,
2013-07-23 17:50:00,92.5,68.1,29.61,NE,35,0.0,3.0,45,0.00,,---,0.35,VWS V14.01,2013-07-23 21:50:00,
2013-07-23 17:54:00,92.7,65.6,29.61,West,279,0.0,4.0,41,0.00,,---,0.35,VWS V14.01,2013-07-23 21:54:00,
2013-07-23 17:55:00,92.7,66.3,29.61,West,279,1.0,4.0,42,0.00,,---,0.35,VWS V14.01,2013-07-23 21:55:00,
2013-07-23 17:59:00,92.9,69.7,29.62,West,268,1.0,2.0,47,0.00,,---,0.35,VWS V14.01,2013-07-23 21:59:00,
2013-07-23 18:00:00,92.9,67.8,29.62,WSW,253,0.0,3.0,44,0.00,,---,0.35,VWS V14.01,2013-07-23 22:00:00,
2013-07-23 18:04:00,93.2,67.4,29.62,WNW,288,0.0,2.0,43,0.00,,---,0.35,VWS V14.01,2013-07-23 22:04:00,
2013-07-23 18:05:00,93.2,67.4,29.62,West,268,1.0,2.0,43,0.00,,---,0.35,VWS V14.01,2013-07-23 22:05:00,
2013-07-23 18:09:00,93.2,68.1,29.62,NW,325,1.0,4.0,44,0.00,,---,0.35,VWS V14.01,2013-07-23 22:09:00,
2013-07-23 18:10:00,93.2,68.1,29.62,NW,325,0.0,4.0,44,0.00,,---,0.35,VWS V14.01,2013-07-23 22:10:00,
2013-07-23 18:14:00,93.2,68.7,29.62,WSW,257,0.0,5.0,45,0.00,,---,0.35,VWS V14.01,2013-07-23 22:14:00,
2013-07-23 18:15:00,93.2,68.1,29.62,WSW,257,1.0,5.0,44,0.00,,---,0.35,VWS V14.01,2013-07-23 22:15:00,
2013-07-23 18:19:00,93.6,66.4,29.62,WNW,284,1.0,4.0,41,0.00,,---,0.35,VWS V14.01,2013-07-23 22:19:00,
2013-07-23 18:20:00,93.6,66.4,29.62,WNW,284,0.0,4.0,41,0.00,,---,0.35,VWS V14.01,2013-07-23 22:20:00,
2013-07-23 18:24:00,93.4,66.9,29.62,West,264,5.0,6.0,42,0.00,,---,0.35,VWS V14.01,2013-07-23 22:24:00,
2013-07-23 18:25:00,93.4,67.6,29.62,West,279,3.0,6.0,43,0.00,,---,0.35,VWS V14.01,2013-07-23 22:25:00,
2013-07-23 18:29:00,93.2,68.1,29.62,West,265,0.0,3.0,44,0.00,,---,0.35,VWS V14.01,2013-07-23 22:29:00,
2013-07-23 18:30:00,93.2,67.4,29.62,WSW,254,7.0,7.0,43,0.00,,---,0.35,VWS V14.01,2013-07-23 22:30:00,
2013-07-23 18:34:00,92.9,68.4,29.62,NW,319,0.0,7.0,45,0.00,,---,0.35,VWS V14.01,2013-07-23 22:34:00,
2013-07-23 18:35:00,92.9,68.4,29.62,NW,319,0.0,7.0,45,0.00,,---,0.35,VWS V14.01,2013-07-23 22:35:00,
2013-07-23 18:39:00,92.7,68.9,29.62,WNW,283,0.0,2.0,46,0.00,,---,0.35,VWS V14.01,2013-07-23 22:39:00,
2013-07-23 18:40:00,92.7,68.9,29.62,West,279,1.0,2.0,46,0.00,,---,0.35,VWS V14.01,2013-07-23 22:40:00,
2013-07-23 18:45:00,91.6,66.6,29.62,WNW,294,1.0,5.0,44,0.00,,---,0.35,VWS V14.01,2013-07-23 22:45:00,
2013-07-23 18:50:00,90.1,65.9,29.63,NW,326,0.0,6.0,45,0.00,,---,0.35,VWS V14.01,2013-07-23 22:50:00,
2013-07-23 18:55:00,89.0,66.8,29.63,WSW,254,0.0,3.0,48,0.00,,---,0.35,VWS V14.01,2013-07-23 22:55:00,
2013-07-23 19:00:00,88.2,66.7,29.63,WSW,254,0.0,2.0,49,0.00,,---,0.35,VWS V14.01,2013-07-23 23:00:00,
2013-07-23 19:05:00,87.8,68.0,29.63,SW,232,0.0,1.0,52,0.00,,---,0.35,VWS V14.01,2013-07-23 23:05:00,
2013-07-23 19:10:00,87.4,67.6,29.63,SW,232,1.0,1.0,52,0.00,,---,0.35,VWS V14.01,2013-07-23 23:10:00,
2013-07-23 19:15:00,86.5,67.9,29.64,SW,232,0.0,0.0,54,0.00,,---,0.35,VWS V14.01,2013-07-23 23:15:00,
2013-07-23 19:20:00,85.9,66.8,29.63,WSW,252,0.0,0.0,53,0.00,,---,0.35,VWS V14.01,2013-07-23 23:20:00,
2013-07-23 19:25:00,85.3,66.8,29.63,WNW,289,0.0,1.0,54,0.00,,---,0.35,VWS V14.01,2013-07-23 23:25:00,
2013-07-23 19:30:00,84.9,66.9,29.64,WNW,289,0.0,1.0,55,0.00,,---,0.35,VWS V14.01,2013-07-23 23:30:00,
2013-07-23 19:31:00,84.9,66.9,29.64,WNW,289,0.0,0.0,55,0.00,,---,0.35,VWS V14.01,2013-07-23 23:31:00,
2013-07-23 19:35:00,84.5,68.1,29.64,WNW,289,0.0,1.0,58,0.00,,---,0.35,VWS V14.01,2013-07-23 23:35:00,
2013-07-23 19:36:00,84.3,67.4,29.64,WNW,289,0.0,0.0,57,0.00,,---,0.35,VWS V14.01,2013-07-23 23:36:00,
2013-07-23 19:40:00,84.1,67.7,29.64,WNW,289,0.0,1.0,58,0.00,,---,0.35,VWS V14.01,2013-07-23 23:40:00,
2013-07-23 19:42:00,84.0,67.1,29.64,WNW,289,0.0,0.0,57,0.00,,---,0.35,VWS V14.01,2013-07-23 23:42:00,
2013-07-23 19:45:00,83.6,66.8,29.64,WNW,289,0.0,0.0,57,0.00,,---,0.35,VWS V14.01,2013-07-23 23:45:00,
2013-07-23 19:47:00,83.4,66.6,29.64,WNW,289,0.0,0.0,57,0.00,,---,0.35,VWS V14.01,2013-07-23 23:47:00,
2013-07-23 19:50:00,83.2,66.9,29.65,WNW,289,0.0,1.0,58,0.00,,---,0.35,VWS V14.01,2013-07-23 23:50:00,
2013-07-23 19:52:00,83.0,67.2,29.64,WNW,289,0.0,1.0,59,0.00,,---,0.35,VWS V14.01,2013-07-23 23:52:00,
2013-07-23 19:55:00,82.8,67.5,29.64,WNW,289,0.0,1.0,60,0.00,,---,0.35,VWS V14.01,2013-07-23 23:55:00,
2013-07-23 19:57:00,82.8,67.0,29.65,WNW,289,0.0,0.0,59,0.00,,---,0.35,VWS V14.01,2013-07-23 23:57:00,
2013-07-23 20:00:00,82.6,67.3,29.65,WNW,289,0.0,0.0,60,0.00,,---,0.35,VWS V14.01,2013-07-24 00:00:00,
2013-07-23 20:02:00,82.4,66.7,29.65,West,281,0.0,2.0,59,0.00,,---,0.35,VWS V14.01,2013-07-24 00:02:00,
2013-07-23 20:05:00,82.2,66.9,29.65,West,281,0.0,2.0,60,0.00,,---,0.35,VWS V14.01,2013-07-24 00:05:00,
2013-07-23 20:07:00,82.0,67.7,29.65,West,281,1.0,1.0,62,0.00,,---,0.35,VWS V14.01,2013-07-24 00:07:00,
2013-07-23 20:10:00,82.0,66.8,29.65,West,281,0.0,1.0,60,0.00,,---,0.35,VWS V14.01,2013-07-24 00:10:00,
2013-07-23 20:12:00,81.8,66.6,29.65,WSW,238,0.0,2.0,60,0.00,,---,0.35,VWS V14.01,2013-07-24 00:12:00,
2013-07-23 20:15:00,81.6,66.4,29.65,WSW,238,0.0,2.0,60,0.00,,---,0.35,VWS V14.01,2013-07-24 00:15:00,
2013-07-23 20:17:00,81.4,66.2,29.65,WSW,244,0.0,2.0,60,0.00,,---,0.35,VWS V14.01,2013-07-24 00:17:00,
2013-07-23 20:20:00,81.2,66.0,29.65,West,263,0.0,3.0,60,0.00,,---,0.35,VWS V14.01,2013-07-24 00:20:00,
2013-07-23 20:22:00,81.1,65.9,29.65,West,263,2.0,2.0,60,0.00,,---,0.35,VWS V14.01,2013-07-24 00:22:00,
2013-07-23 20:25:00,81.1,66.4,29.65,West,263,0.0,2.0,61,0.00,,---,0.35,VWS V14.01,2013-07-24 00:25:00,
2013-07-23 20:28:00,80.9,65.7,29.65,West,263,0.0,1.0,60,0.00,,---,0.35,VWS V14.01,2013-07-24 00:28:00,
2013-07-23 20:30:00,80.7,66.0,29.65,West,261,0.0,3.0,61,0.00,,---,0.35,VWS V14.01,2013-07-24 00:30:00,
2013-07-23 20:33:00,80.7,66.0,29.65,West,261,1.0,1.0,61,0.00,,---,0.35,VWS V14.01,2013-07-24 00:33:00,
2013-07-23 20:35:00,80.5,66.3,29.65,West,261,0.0,1.0,62,0.00,,---,0.35,VWS V14.01,2013-07-24 00:35:00,
2013-07-23 20:38:00,80.3,66.1,29.66,West,261,0.0,0.0,62,0.00,,---,0.35,VWS V14.01,2013-07-24 00:38:00,
2013-07-23 20:40:00,80.3,66.1,29.66,West,261,0.0,0.0,62,0.00,,---,0.35,VWS V14.01,2013-07-24 00:40:00,
2013-07-23 20:43:00,80.3,67.0,29.66,West,261,1.0,2.0,64,0.00,,---,0.35,VWS V14.01,2013-07-24 00:43:00,
2013-07-23 20:45:00,80.1,66.4,29.66,West,260,0.0,2.0,63,0.00,,---,0.35,VWS V14.01,2013-07-24 00:45:00,
2013-07-23 20:48:00,79.9,66.2,29.65,West,261,0.0,2.0,63,0.00,,---,0.35,VWS V14.01,2013-07-24 00:48:00,
2013-07-23 20:50:00,79.9,66.2,29.65,West,261,1.0,2.0,63,0.00,,---,0.35,VWS V14.01,2013-07-24 00:50:00,
2013-07-23 20:53:00,79.6,66.4,29.66,West,270,1.0,2.0,64,0.00,,---,0.35,VWS V14.01,2013-07-24 00:53:00,
2013-07-23 20:55:00,79.6,66.4,29.66,West,270,2.0,2.0,64,0.00,,---,0.35,VWS V14.01,2013-07-24 00:55:00,
2013-07-23 20:58:00,79.6,66.4,29.66,WNW,296,2.0,5.0,64,0.00,,---,0.35,VWS V14.01,2013-07-24 00:58:00,
2013-07-23 21:00:00,79.4,65.7,29.66,WNW,289,1.0,5.0,63,0.00,,---,0.35,VWS V14.01,2013-07-24 01:00:00,
2013-07-23 21:03:00,79.4,65.7,29.66,West,260,2.0,3.0,63,0.00,,---,0.35,VWS V14.01,2013-07-24 01:03:00,
2013-07-23 21:05:00,79.4,66.2,29.66,West,260,1.0,3.0,64,0.00,,---,0.35,VWS V14.01,2013-07-24 01:05:00,
2013-07-23 21:09:00,79.4,67.1,29.66,West,259,1.0,2.0,66,0.00,,---,0.35,VWS V14.01,2013-07-24 01:09:00,
2013-07-23 21:10:00,79.4,66.6,29.66,West,259,1.0,2.0,65,0.00,,---,0.35,VWS V14.01,2013-07-24 01:10:00,
2013-07-23 21:14:00,79.2,66.4,29.66,West,269,2.0,3.0,65,0.00,,---,0.35,VWS V14.01,2013-07-24 01:14:00,
2013-07-23 21:15:00,79.2,66.0,29.66,West,267,1.0,3.0,64,0.00,,---,0.35,VWS V14.01,2013-07-24 01:15:00,
2013-07-23 21:19:00,79.2,66.0,29.66,WSW,258,0.0,4.0,64,0.00,,---,0.35,VWS V14.01,2013-07-24 01:19:00,
2013-07-23 21:20:00,79.0,66.2,29.66,WNW,285,1.0,4.0,65,0.00,,---,0.35,VWS V14.01,2013-07-24 01:20:00,
2013-07-23 21:24:00,79.0,66.2,29.66,WNW,282,1.0,3.0,65,0.00,,---,0.35,VWS V14.01,2013-07-24 01:24:00,
2013-07-23 21:25:00,79.0,66.7,29.66,WNW,282,0.0,3.0,66,0.00,,---,0.35,VWS V14.01,2013-07-24 01:25:00,
2013-07-23 21:29:00,78.8,66.5,29.66,West,270,0.0,4.0,66,0.00,,---,0.35,VWS V14.01,2013-07-24 01:29:00,
2013-07-23 21:30:00,78.8,66.5,29.66,West,270,1.0,4.0,66,0.00,,---,0.35,VWS V14.01,2013-07-24 01:30:00,
2013-07-23 21:34:00,78.6,66.3,29.66,West,272,1.0,2.0,66,0.00,,---,0.35,VWS V14.01,2013-07-24 01:34:00,
2013-07-23 21:35:00,78.6,66.3,29.66,West,272,2.0,2.0,66,0.00,,---,0.35,VWS V14.01,2013-07-24 01:35:00,
2013-07-23 21:39:00,78.6,65.4,29.66,West,269,1.0,4.0,64,0.00,,---,0.35,VWS V14.01,2013-07-24 01:39:00,
2013-07-23 21:40:00,78.6,65.4,29.66,West,269,2.0,4.0,64,0.00,,---,0.35,VWS V14.01,2013-07-24 01:40:00,
2013-07-23 21:45:00,78.6,65.9,29.66,West,269,0.0,4.0,65,0.00,,---,0.35,VWS V14.01,2013-07-24 01:45:00,
2013-07-23 21:50:00,78.6,65.9,29.66,West,268,1.0,3.0,65,0.00,,---,0.35,VWS V14.01,2013-07-24 01:50:00,
2013-07-23 21:55:00,78.6,65.9,29.66,West,265,1.0,5.0,65,0.00,,---,0.35,VWS V14.01,2013-07-24 01:55:00,
2013-07-23 22:00:00,78.5,65.8,29.66,West,271,4.0,4.0,65,0.00,,---,0.35,VWS V14.01,2013-07-24 02:00:00,
2013-07-23 22:05:00,78.5,65.8,29.66,West,270,1.0,4.0,65,0.00,,---,0.35,VWS V14.01,2013-07-24 02:05:00,
2013-07-23 22:10:00,78.5,66.2,29.66,West,269,4.0,5.0,66,0.00,,---,0.35,VWS V14.01,2013-07-24 02:10:00,
2013-07-23 22:15:00,78.5,66.2,29.66,West,270,1.0,1.0,66,0.00,,---,0.35,VWS V14.01,2013-07-24 02:15:00,
2013-07-23 22:20:00,78.3,66.0,29.66,West,277,1.0,1.0,66,0.00,,---,0.35,VWS V14.01,2013-07-24 02:20:00,
2013-07-23 22:25:00,78.1,66.3,29.67,West,271,0.0,0.0,67,0.00,,---,0.35,VWS V14.01,2013-07-24 02:25:00,
2013-07-23 22:30:00,77.9,66.5,29.67,West,271,0.0,0.0,68,0.00,,---,0.35,VWS V14.01,2013-07-24 02:30:00,
2013-07-23 22:35:00,77.7,66.7,29.67,West,271,0.0,0.0,69,0.00,,---,0.35,VWS V14.01,2013-07-24 02:35:00,
2013-07-23 22:40:00,77.4,66.9,29.67,WSW,258,0.0,2.0,70,0.00,,---,0.35,VWS V14.01,2013-07-24 02:40:00,
2013-07-23 22:41:00,77.4,66.9,29.67,WSW,258,1.0,1.0,70,0.00,,---,0.35,VWS V14.01,2013-07-24 02:41:00,
2013-07-23 22:45:00,77.2,67.1,29.67,WSW,258,1.0,2.0,71,0.00,,---,0.35,VWS V14.01,2013-07-24 02:45:00,
2013-07-23 22:46:00,77.0,66.9,29.66,West,261,2.0,2.0,71,0.00,,---,0.35,VWS V14.01,2013-07-24 02:46:00,
2013-07-23 22:50:00,76.8,66.7,29.67,WSW,249,3.0,4.0,71,0.00,,---,0.35,VWS V14.01,2013-07-24 02:50:00,
2013-07-23 22:51:00,76.8,66.3,29.67,WNW,298,4.0,4.0,70,0.00,,---,0.35,VWS V14.01,2013-07-24 02:51:00,
2013-07-23 22:55:00,77.0,66.1,29.66,WSW,243,8.0,8.0,69,0.00,,---,0.35,VWS V14.01,2013-07-24 02:55:00,
2013-07-23 22:56:00,77.2,65.8,29.66,WNW,288,4.0,9.0,68,0.00,,---,0.35,VWS V14.01,2013-07-24 02:56:00,
2013-07-23 23:00:00,77.4,66.0,29.66,WSW,257,3.0,9.0,68,0.00,,---,0.35,VWS V14.01,2013-07-24 03:00:00,
2013-07-23 23:01:00,77.6,66.2,29.66,WSW,254,3.0,7.0,68,0.00,,---,0.35,VWS V14.01,2013-07-24 03:01:00,
2013-07-23 23:05:00,77.7,65.9,29.66,WNW,292,2.0,7.0,67,0.00,,---,0.35,VWS V14.01,2013-07-24 03:05:00,
2013-07-23 23:06:00,77.7,65.9,29.67,West,274,3.0,4.0,67,0.00,,---,0.35,VWS V14.01,2013-07-24 03:06:00,
2013-07-23 23:10:00,77.9,66.1,29.67,WNW,289,2.0,6.0,67,0.00,,---,0.35,VWS V14.01,2013-07-24 03:10:00,
2013-07-23 23:11:00,77.9,66.1,29.67,WNW,302,3.0,6.0,67,0.00,,---,0.35,VWS V14.01,2013-07-24 03:11:00,
2013-07-23 23:15:00,77.9,66.5,29.67,WSW,257,5.0,7.0,68,0.00,,---,0.35,VWS V14.01,2013-07-24 03:15:00,
2013-07-23 23:16:00,77.9,66.1,29.67,West,275,6.0,7.0,67,0.00,,---,0.35,VWS V14.01,2013-07-24 03:16:00,
2013-07-23 23:20:00,77.7,66.3,29.67,West,281,3.0,9.0,68,0.00,,---,0.35,VWS V14.01,2013-07-24 03:20:00,
2013-07-23 23:21:00,77.7,66.3,29.67,West,277,3.0,5.0,68,0.00,,---,0.35,VWS V14.01,2013-07-24 03:21:00,
2013-07-23 23:25:00,77.7,66.3,29.68,WSW,252,4.0,8.0,68,0.00,,---,0.35,VWS V14.01,2013-07-24 03:25:00,
2013-07-23 23:27:00,77.7,66.3,29.68,West,269,5.0,9.0,68,0.00,,---,0.35,VWS V14.01,2013-07-24 03:27:00,
2013-07-23 23:30:00,77.7,66.3,29.68,West,280,1.0,9.0,68,0.00,,---,0.35,VWS V14.01,2013-07-24 03:30:00,
2013-07-23 23:32:00,77.7,66.3,29.68,WNW,302,4.0,9.0,68,0.00,,---,0.35,VWS V14.01,2013-07-24 03:32:00,
2013-07-23 23:35:00,77.6,66.2,29.68,West,275,1.0,9.0,68,0.00,,---,0.35,VWS V14.01,2013-07-24 03:35:00,
2013-07-23 23:37:00,77.6,66.2,29.69,WNW,283,1.0,2.0,68,0.00,,---,0.35,VWS V14.01,2013-07-24 03:37:00,
2013-07-23 23:40:00,77.6,66.6,29.69,NNE,27,2.0,4.0,69,0.00,,---,0.35,VWS V14.01,2013-07-24 03:40:00,
2013-07-23 23:42:00,77.4,66.4,29.68,NNW,340,3.0,3.0,69,0.00,,---,0.35,VWS V14.01,2013-07-24 03:42:00,
2013-07-23 23:45:00,77.4,66.0,29.68,WNW,288,3.0,6.0,68,0.00,,---,0.35,VWS V14.01,2013-07-24 03:45:00,
2013-07-23 23:47:00,77.2,65.4,29.69,WSW,246,4.0,5.0,67,0.00,,---,0.35,VWS V14.01,2013-07-24 03:47:00,
2013-07-23 23:50:00,77.2,65.4,29.68,WSW,246,3.0,5.0,67,0.00,,---,0.35,VWS V14.01,2013-07-24 03:50:00,
2013-07-23 23:52:00,77.2,65.4,29.68,WSW,251,5.0,5.0,67,0.00,,---,0.35,VWS V14.01,2013-07-24 03:52:00,
2013-07-23 23:55:00,77.2,65.8,29.68,West,276,2.0,5.0,68,0.00,,---,0.35,VWS V14.01,2013-07-24 03:55:00,
2013-07-23 23:57:00,77.2,65.8,29.68,SW,229,1.0,4.0,68,0.00,,---,0.35,VWS V14.01,2013-07-24 03:57:00,